OIBL  Bandar Lengeh Airport

Add Bookmark

Bandar Lengeh, Iran

Status IATA
Operational BDH
Latitude Longitude
26° 31' 55" N 54° 49' 29" E
26.532000 54.824799
Local (DST + 5) UTC (GMT + 4)
Sep 1, 2014 12:01 Sep 1, 2014 07:31
Sunrise-Sunset Local UTC
Begin Civil Twilight 06:05 01:35
Sunrise 06:29 01:59
Sunset 07:12 14:42
End Civil Twilight 07:35 15:05

Current Weather

METAR Observed IFR
OIBL 010700Z 18006KT 4000 HZ SKC 35/28 Q1000 Mon, Sep 1, 2014 @ 07:00 UTC
(31 Minutes ago)
Instrument Flight Rules
Wind Visibility Clouds Conditions
180° at 6 knots (11 kph) 4000 meters
  • Clear skies
  • Haze
Temperatures Readings Precipitation
Current Temp 35°C (95°F)
Dewpoint 28°C (82°F)
Heat Index 49°C (120°F)
Humidity 67%
Altimeter 29.53"Hg
Sea Level Pressure 1000mb
Field Elevation 45.93'
None Recorded

Additional weather within a 92.6km radius of OIBL

Map ICAO Location
OIBS 74.8km S (202°)
OIBA 75.7km S (164°)
OIBK 83.9km W (270°)

24 Hour Weather History

Loading
-

24 Hour Weather Graphs

Loading
-

CheckWX.com is intended as a tool to help pilots better visualize weather data. It is not intended as a substitute for an official weather briefing obtained from a Flight Service Station. CheckWX.com does not meet the FAA requirements for an official pre-flight weather briefing. Therefore, it's important that pilots still call and obtain an official FSS pre-flight weather briefing.